Time;durP1;ratioP1;P1;durP2;ratioP2;P2;SDS_P1;SDS_P2;PMS_P1;PMS_P2;Temp;Humidity;BMP_temperature;BMP_pressure;BME280_temperature;BME280_humidity;BME280_pressure;Samples;Min_cycle;Max_cycle;Signal;HPM_P1;HPM_P2
2021/01/25 00:01:50;;;;;;;18.58;12.57;;;2.00;94.80;;;;;;5114638;27;20378;-40
2021/01/25 00:04:16;;;;;;;19.65;12.57;;;1.90;94.70;;;;;;5125312;27;20065;-40
2021/01/25 00:06:42;;;;;;;20.08;12.95;;;2.00;94.70;;;;;;5113833;27;20087;-41
2021/01/25 00:09:07;;;;;;;17.92;11.60;;;2.00;94.70;;;;;;5126307;27;20031;-39
2021/01/25 00:11:33;;;;;;;16.60;11.15;;;2.00;94.60;;;;;;5112783;27;20032;-41
2021/01/25 00:13:58;;;;;;;16.77;11.77;;;2.00;94.60;;;;;;5126136;27;20049;-38
2021/01/25 00:16:24;;;;;;;15.23;10.68;;;2.00;94.60;;;;;;5113250;27;20031;-40
2021/01/25 00:18:49;;;;;;;16.30;11.43;;;2.00;94.60;;;;;;5125407;27;20031;-40
2021/01/25 00:21:15;;;;;;;12.30;9.70;;;2.00;94.60;;;;;;5116533;27;20049;-40
2021/01/25 00:23:40;;;;;;;13.50;9.82;;;2.00;94.60;;;;;;5122031;27;20062;-41
2021/01/25 00:26:06;;;;;;;14.70;10.43;;;2.00;94.60;;;;;;5119281;27;20027;-41
2021/01/25 00:28:31;;;;;;;18.27;11.02;;;2.00;94.60;;;;;;5119495;27;20024;-40
2021/01/25 00:30:57;;;;;;;20.23;12.43;;;2.00;94.60;;;;;;5121166;27;20445;-41
2021/01/25 00:33:22;;;;;;;18.58;13.48;;;2.00;94.50;;;;;;5116809;27;20035;-41
2021/01/25 00:35:50;;;;;;;19.58;14.10;;;2.00;94.50;;;;;;5123958;27;20046;-39
2021/01/25 00:38:16;;;;;;;18.15;13.57;;;2.00;94.40;;;;;;5114049;27;20431;-41
2021/01/25 00:40:42;;;;;;;17.10;12.88;;;2.00;94.40;;;;;;5124179;27;20052;-42
2021/01/25 00:43:07;;;;;;;19.17;12.20;;;2.00;94.40;;;;;;5114128;27;20106;-41
2021/01/25 00:45:33;;;;;;;18.67;12.48;;;2.10;94.40;;;;;;5125241;27;20122;-43
2021/01/25 00:47:59;;;;;;;16.70;12.45;;;2.10;94.40;;;;;;5112916;27;20031;-41
2021/01/25 00:50:25;;;;;;;18.73;12.40;;;2.10;94.40;;;;;;5126040;27;20031;-41
2021/01/25 00:52:50;;;;;;;17.67;11.45;;;2.10;94.30;;;;;;5112109;28;20203;-40
2021/01/25 00:55:16;;;;;;;19.75;12.70;;;2.10;94.30;;;;;;5125715;28;20213;-40
2021/01/25 00:57:42;;;;;;;19.48;13.10;;;2.10;94.40;;;;;;5114003;28;20034;-41
2021/01/25 01:00:09;;;;;;;17.05;12.32;;;2.10;94.30;;;;;;5123892;28;20023;-39
2021/01/25 01:02:35;;;;;;;16.33;11.93;;;2.10;94.30;;;;;;5116358;28;20023;-39
2021/01/25 01:05:02;;;;;;;18.38;12.43;;;2.10;94.30;;;;;;5121393;28;20054;-40
2021/01/25 01:07:28;;;;;;;17.35;12.10;;;2.10;94.30;;;;;;5118828;28;20020;-38
2021/01/25 01:09:53;;;;;;;16.30;11.70;;;2.10;94.30;;;;;;5118701;28;20023;-38
2021/01/25 01:12:19;;;;;;;16.42;12.13;;;2.10;94.30;;;;;;5121125;28;20035;-37
2021/01/25 01:14:44;;;;;;;18.42;12.40;;;2.10;94.40;;;;;;5116298;28;20080;-39
2021/01/25 01:17:10;;;;;;;14.43;11.05;;;2.10;94.40;;;;;;5123838;28;20489;-39
2021/01/25 01:19:35;;;;;;;17.60;12.35;;;2.10;94.40;;;;;;5113121;28;20098;-40
2021/01/25 01:22:01;;;;;;;16.27;11.88;;;2.20;94.40;;;;;;5124146;28;20080;-38
2021/01/25 01:24:26;;;;;;;17.55;12.52;;;2.10;94.30;;;;;;5113771;28;20453;-40
2021/01/25 01:26:52;;;;;;;17.13;11.93;;;2.20;94.30;;;;;;5124609;28;20046;-39
2021/01/25 01:29:20;;;;;;;18.52;12.77;;;2.20;94.30;;;;;;5112090;28;20034;-38
2021/01/25 01:31:46;;;;;;;17.88;13.25;;;2.20;94.30;;;;;;5124753;28;20492;-39
2021/01/25 01:34:11;;;;;;;20.95;13.70;;;2.10;94.30;;;;;;5111720;28;20037;-40
2021/01/25 01:36:37;;;;;;;18.42;12.77;;;2.10;94.30;;;;;;5125196;28;20038;-40
2021/01/25 01:39:03;;;;;;;18.00;13.30;;;2.10;94.30;;;;;;5114751;27;20131;-40
2021/01/25 01:41:37;;;;;;;18.77;13.80;;;2.10;94.40;;;;;;5126805;27;20026;-40
2021/01/25 01:44:11;;;;;;;20.85;14.32;;;2.10;94.40;;;;;;5119873;27;20019;-38
2021/01/25 01:46:41;;;;;;;23.83;16.20;;;2.10;94.40;;;;;;5126762;27;20372;-40
2021/01/25 01:49:07;;;;;;;19.70;13.70;;;2.10;94.40;;;;;;5119720;27;20469;-39
2021/01/25 01:51:35;;;;;;;19.33;14.20;;;2.00;94.40;;;;;;5124910;27;20483;-40
2021/01/25 01:54:02;;;;;;;21.67;15.95;;;2.00;94.40;;;;;;5122248;27;20042;-39
2021/01/25 01:56:27;;;;;;;21.08;14.68;;;2.00;94.40;;;;;;5122437;27;20483;-40
2021/01/25 01:58:53;;;;;;;22.10;15.30;;;2.00;94.50;;;;;;5124794;27;20039;-38
2021/01/25 02:01:19;;;;;;;19.67;14.13;;;2.00;94.50;;;;;;5119675;27;20054;-39
2021/01/25 02:03:44;;;;;;;19.92;13.23;;;2.00;94.50;;;;;;5126331;27;20077;-39
2021/01/25 02:06:13;;;;;;;18.70;13.25;;;2.00;94.60;;;;;;5117174;27;20027;-40
2021/01/25 02:08:39;;;;;;;22.38;16.60;;;2.10;94.60;;;;;;5126359;27;20027;-40
2021/01/25 02:11:06;;;;;;;25.85;17.30;;;2.10;94.60;;;;;;5117494;27;20046;-39
2021/01/25 02:13:33;;;;;;;20.95;16.13;;;2.10;94.50;;;;;;5128418;27;20038;-39
2021/01/25 02:16:03;;;;;;;21.30;15.93;;;2.10;94.50;;;;;;5115882;27;20023;-39
2021/01/25 02:18:29;;;;;;;22.95;15.32;;;2.10;94.50;;;;;;5128915;27;20039;-40
2021/01/25 02:20:56;;;;;;;20.95;16.02;;;2.10;94.50;;;;;;5114938;27;20398;-40
2021/01/25 02:23:54;;;;;;;25.08;16.02;;;2.10;94.50;;;;;;5128231;27;20361;-41
2021/01/25 02:26:43;;;;;;;20.33;14.55;;;2.10;94.50;;;;;;5116639;27;20054;-40
2021/01/25 02:29:09;;;;;;;23.05;15.68;;;2.10;94.50;;;;;;5127517;27;20106;-41
2021/01/25 02:31:35;;;;;;;23.55;16.15;;;2.10;94.50;;;;;;5115646;27;20145;-39
2021/01/25 02:34:02;;;;;;;19.15;14.00;;;2.10;94.50;;;;;;5128132;27;20129;-41
2021/01/25 02:36:30;;;;;;;19.65;14.20;;;2.10;94.50;;;;;;5115107;27;20447;-41
2021/01/25 02:38:57;;;;;;;18.25;14.30;;;2.10;94.60;;;;;;5127654;27;20488;-40
2021/01/25 02:41:25;;;;;;;21.02;14.05;;;2.10;94.60;;;;;;5115174;27;20351;-40
2021/01/25 02:43:52;;;;;;;19.63;13.77;;;2.10;94.60;;;;;;5127590;27;20566;-40
2021/01/25 02:46:18;;;;;;;17.80;13.50;;;2.10;94.60;;;;;;5116663;27;20458;-38
2021/01/25 02:48:44;;;;;;;19.88;14.13;;;2.10;94.60;;;;;;5126401;27;20106;-36
2021/01/25 02:51:12;;;;;;;17.23;12.57;;;2.10;94.60;;;;;;5118911;27;20074;-39
2021/01/25 02:53:37;;;;;;;18.70;13.35;;;2.10;94.60;;;;;;5123385;27;20449;-39
2021/01/25 02:56:05;;;;;;;19.17;13.15;;;2.10;94.60;;;;;;5121848;27;20019;-40
2021/01/25 02:58:31;;;;;;;21.13;14.57;;;2.10;94.60;;;;;;5121113;27;20462;-39
2021/01/25 03:00:57;;;;;;;18.55;13.20;;;2.10;94.60;;;;;;5123343;27;20030;-39
2021/01/25 03:03:24;;;;;;;18.15;12.80;;;2.00;94.60;;;;;;5118409;27;20090;-39
2021/01/25 03:05:49;;;;;;;18.00;12.20;;;2.00;94.70;;;;;;5125668;27;20139;-40
2021/01/25 03:08:18;;;;;;;16.92;12.27;;;2.00;95.00;;;;;;5115983;27;20019;-34
2021/01/25 03:10:47;;;;;;;15.10;11.38;;;2.00;94.70;;;;;;5126128;27;20019;-39
2021/01/25 03:13:14;;;;;;;16.90;11.75;;;2.00;94.80;;;;;;5115571;27;20042;-38
2021/01/25 03:15:40;;;;;;;21.60;14.93;;;2.00;94.80;;;;;;5126734;27;20037;-36
2021/01/25 03:18:05;;;;;;;21.80;15.57;;;2.00;94.80;;;;;;5115773;27;20139;-39
2021/01/25 03:20:31;;;;;;;24.88;15.63;;;1.90;94.70;;;;;;5126665;27;20046;-39
2021/01/25 03:22:56;;;;;;;23.35;16.58;;;1.90;94.70;;;;;;5113927;27;20518;-39
2021/01/25 03:25:25;;;;;;;25.67;16.95;;;1.90;94.80;;;;;;5127582;27;20027;-38
2021/01/25 03:27:50;;;;;;;21.00;15.77;;;1.80;94.80;;;;;;5113655;27;20019;-37
2021/01/25 03:30:16;;;;;;;27.80;18.45;;;1.80;94.80;;;;;;5127020;27;20508;-40
2021/01/25 03:32:42;;;;;;;25.55;18.58;;;1.70;94.80;;;;;;5117206;27;20133;-39
2021/01/25 03:35:09;;;;;;;27.35;18.33;;;1.70;94.80;;;;;;5123618;27;20015;-40
2021/01/25 03:37:36;;;;;;;27.08;18.42;;;1.60;94.90;;;;;;5119144;27;20023;-37
2021/01/25 03:40:04;;;;;;;30.90;20.92;;;1.60;94.90;;;;;;5121607;27;20019;-39
2021/01/25 03:42:30;;;;;;;30.67;20.75;;;1.60;94.90;;;;;;5121482;27;20126;-41
2021/01/25 03:44:55;;;;;;;25.75;17.60;;;1.60;94.90;;;;;;5119377;27;20119;-38
2021/01/25 03:47:21;;;;;;;25.80;18.48;;;1.50;95.00;;;;;;5123917;27;20053;-39
2021/01/25 03:49:49;;;;;;;30.67;20.40;;;1.50;95.00;;;;;;5116573;27;20038;-40
2021/01/25 03:52:15;;;;;;;27.42;17.90;;;1.40;95.00;;;;;;5125016;27;20370;-40
2021/01/25 03:54:40;;;;;;;31.65;20.85;;;1.40;95.00;;;;;;5114419;27;20045;-37
2021/01/25 03:57:06;;;;;;;34.55;22.25;;;1.40;95.10;;;;;;5125726;27;20031;-41
2021/01/25 03:59:31;;;;;;;33.38;22.25;;;1.40;95.10;;;;;;5115085;27;20495;-40
2021/01/25 04:01:57;;;;;;;31.13;21.63;;;1.40;95.20;;;;;;5125552;27;20023;-40
2021/01/25 04:04:24;;;;;;;33.95;22.40;;;1.40;95.30;;;;;;5113584;27;20073;-39
2021/01/25 04:06:49;;;;;;;33.30;22.00;;;1.40;95.30;;;;;;5126205;27;20106;-40
2021/01/25 04:09:15;;;;;;;32.05;21.02;;;1.40;95.20;;;;;;5111791;27;20582;-41
2021/01/25 04:11:42;;;;;;;26.60;19.48;;;1.40;95.20;;;;;;5125317;27;20366;-40
2021/01/25 04:14:09;;;;;;;29.60;18.67;;;1.40;95.20;;;;;;5115691;27;20031;-39
2021/01/25 04:16:35;;;;;;;26.55;18.70;;;1.40;95.20;;;;;;5123875;27;20023;-40
2021/01/25 04:19:02;;;;;;;25.38;18.35;;;1.40;95.20;;;;;;5117914;27;20025;-39
2021/01/25 04:21:27;;;;;;;23.55;15.63;;;1.40;95.20;;;;;;5121801;27;20057;-40
2021/01/25 04:23:53;;;;;;;22.48;15.77;;;1.40;95.20;;;;;;5120485;27;20051;-40
2021/01/25 04:26:18;;;;;;;24.70;17.02;;;1.30;95.30;;;;;;5118896;27;20027;-40
2021/01/25 04:28:44;;;;;;;24.30;17.17;;;1.30;95.20;;;;;;5123650;27;20023;-39
2021/01/25 04:31:09;;;;;;;20.27;15.13;;;1.20;95.30;;;;;;5116227;27;20019;-40
2021/01/25 04:33:35;;;;;;;24.45;16.58;;;1.20;95.30;;;;;;5125001;27;20027;-41
2021/01/25 04:36:01;;;;;;;27.95;18.65;;;1.10;95.30;;;;;;5114684;27;20019;-40
2021/01/25 04:38:27;;;;;;;30.70;20.63;;;1.10;95.30;;;;;;5124901;27;20052;-39
2021/01/25 04:40:52;;;;;;;27.77;19.20;;;1.10;95.40;;;;;;5113985;27;20484;-39
2021/01/25 04:43:21;;;;;;;29.45;20.95;;;1.00;95.40;;;;;;5125978;27;20031;-39
2021/01/25 04:45:53;;;;;;;26.00;18.90;;;1.00;95.50;;;;;;5112922;27;20081;-39
2021/01/25 04:48:21;;;;;;;26.02;19.30;;;1.00;95.50;;;;;;5126613;27;20031;-38
2021/01/25 04:50:49;;;;;;;29.27;19.13;;;0.90;95.50;;;;;;5112760;27;20096;-40
2021/01/25 04:53:15;;;;;;;26.77;18.45;;;0.90;95.60;;;;;;5126201;28;20043;-38
2021/01/25 04:55:42;;;;;;;27.00;18.98;;;0.90;95.60;;;;;;5113862;28;20048;-38
2021/01/25 04:58:11;;;;;;;24.88;18.13;;;0.80;95.60;;;;;;5125367;28;20122;-38
2021/01/25 05:00:39;;;;;;;23.02;16.33;;;0.80;95.70;;;;;;5116192;28;20478;-40
2021/01/25 05:03:05;;;;;;;26.38;16.77;;;0.80;95.70;;;;;;5123237;28;20051;-40
2021/01/25 05:05:30;;;;;;;29.63;21.95;;;0.70;95.70;;;;;;5118487;28;20424;-38
2021/01/25 05:07:56;;;;;;;35.65;24.23;;;0.70;95.70;;;;;;5120394;28;20137;-40
2021/01/25 05:10:23;;;;;;;33.35;23.30;;;0.70;95.80;;;;;;5121299;28;20088;-37
2021/01/25 05:12:50;;;;;;;31.40;22.95;;;0.70;95.80;;;;;;5117145;27;20035;-39
2021/01/25 05:15:29;;;;;;;39.28;22.85;;;0.70;95.90;;;;;;5126864;27;20140;-40
2021/01/25 05:18:03;;;;;;;35.25;21.80;;;0.70;95.90;;;;;;5121041;27;20103;-39
2021/01/25 05:20:30;;;;;;;29.80;21.88;;;0.60;95.90;;;;;;5126438;27;20098;-38
2021/01/25 05:22:58;;;;;;;29.65;20.13;;;0.60;95.90;;;;;;5120180;27;20034;-35
2021/01/25 05:25:28;;;;;;;29.13;18.92;;;0.60;96.20;;;;;;5128346;27;20026;-39
2021/01/25 05:27:58;;;;;;;35.20;22.13;;;0.60;96.00;;;;;;5117923;27;20031;-39
2021/01/25 05:30:25;;;;;;;34.45;22.88;;;0.60;96.00;;;;;;5128611;27;20016;-40
2021/01/25 05:32:57;;;;;;;39.75;25.60;;;0.60;96.00;;;;;;5117418;27;20034;-38
2021/01/25 05:35:33;;;;;;;37.65;25.70;;;0.60;96.00;;;;;;5128749;27;20099;-39
2021/01/25 05:38:02;;;;;;;35.13;25.48;;;0.60;96.00;;;;;;5125219;27;20019;-38
2021/01/25 05:40:29;;;;;;;40.60;25.98;;;0.60;96.10;;;;;;5128394;27;20420;-37
2021/01/25 05:42:56;;;;;;;38.78;28.23;;;0.60;96.10;;;;;;5117041;27;20114;-40
2021/01/25 05:45:22;;;;;;;47.20;30.92;;;0.60;96.10;;;;;;5129720;27;20023;-38
2021/01/25 05:47:54;;;;;;;42.67;29.58;;;0.60;96.10;;;;;;5115723;27;20543;-42
2021/01/25 05:50:33;;;;;;;45.55;31.15;;;0.70;96.10;;;;;;5129740;27;20327;-40
2021/01/25 05:53:07;;;;;;;49.20;31.75;;;0.70;96.10;;;;;;5115776;27;20039;-41
2021/01/25 05:55:34;;;;;;;45.38;32.03;;;0.60;96.10;;;;;;5129290;27;20349;-40
2021/01/25 05:58:01;;;;;;;48.13;32.20;;;0.60;96.10;;;;;;5115979;27;20023;-39
2021/01/25 06:00:28;;;;;;;46.70;32.38;;;0.60;96.20;;;;;;5129533;27;20705;-38
2021/01/25 06:02:54;;;;;;;46.13;31.75;;;0.60;96.20;;;;;;5117399;27;20110;-40
2021/01/25 06:05:32;;;;;;;55.08;35.22;;;0.50;96.20;;;;;;5127702;27;20077;-40
2021/01/25 06:08:02;;;;;;;49.42;33.20;;;0.50;96.30;;;;;;5117798;27;20092;-38
2021/01/25 06:10:42;;;;;;;49.08;32.63;;;0.50;96.30;;;;;;5127892;27;20445;-40
2021/01/25 06:13:21;;;;;;;46.40;30.70;;;0.50;96.30;;;;;;5118699;27;20040;-38
2021/01/25 06:15:49;;;;;;;46.50;32.50;;;0.50;96.40;;;;;;5127914;27;20076;-39
2021/01/25 06:18:17;;;;;;;48.67;34.30;;;0.40;96.40;;;;;;5119023;27;20503;-40
2021/01/25 06:20:44;;;;;;;45.08;30.13;;;0.50;96.50;;;;;;5126383;27;20152;-41
2021/01/25 06:23:11;;;;;;;46.08;31.52;;;0.40;96.70;;;;;;5120525;27;20049;-40
2021/01/25 06:25:37;;;;;;;50.97;32.78;;;0.40;96.50;;;;;;5123748;27;20034;-34
2021/01/25 06:28:04;;;;;;;45.72;31.83;;;0.40;96.50;;;;;;5123590;27;20020;-39
2021/01/25 06:30:30;;;;;;;48.38;31.60;;;0.40;96.50;;;;;;5121403;27;20057;-39
2021/01/25 06:32:58;;;;;;;46.83;31.95;;;0.40;96.60;;;;;;5125420;27;20024;-40
2021/01/25 06:35:28;;;;;;;46.63;31.40;;;0.40;96.60;;;;;;5119074;27;20094;-40
2021/01/25 06:37:54;;;;;;;43.15;31.20;;;0.40;96.60;;;;;;5126700;27;20114;-41
2021/01/25 06:40:29;;;;;;;45.85;30.65;;;0.40;96.60;;;;;;5117054;27;20062;-39
2021/01/25 06:42:56;;;;;;;44.25;30.85;;;0.40;96.60;;;;;;5126675;27;20053;-39
2021/01/25 06:45:25;;;;;;;44.67;31.05;;;0.30;96.50;;;;;;5117222;27;20054;-39
2021/01/25 06:47:52;;;;;;;44.60;31.17;;;0.40;96.60;;;;;;5125468;27;20043;-40
2021/01/25 06:50:19;;;;;;;45.22;30.90;;;0.30;96.60;;;;;;5116428;27;20027;-39
2021/01/25 06:52:48;;;;;;;43.92;31.48;;;0.30;96.60;;;;;;5128284;27;20041;-37
2021/01/25 06:55:13;;;;;;;52.58;32.33;;;0.30;96.60;;;;;;5120348;27;20036;-37
2021/01/25 06:57:40;;;;;;;48.65;31.27;;;0.30;96.60;;;;;;5104925;28;20143;-40
2021/01/25 07:00:09;;;;;;;42.17;28.88;;;0.40;96.60;;;;;;5109279;27;20035;-40
2021/01/25 07:02:50;;;;;;;43.00;29.45;;;0.30;96.60;;;;;;5124465;27;20019;-40
2021/01/25 07:05:20;;;;;;;50.95;34.45;;;0.40;96.60;;;;;;5121567;27;20478;-39
2021/01/25 07:07:46;;;;;;;46.85;31.50;;;0.30;96.60;;;;;;5106901;28;20028;-40
2021/01/25 07:10:15;;;;;;;49.63;32.25;;;0.30;96.50;;;;;;5118233;27;20035;-39
2021/01/25 07:12:41;;;;;;;49.67;32.65;;;0.30;96.50;;;;;;5106225;28;20107;-39
2021/01/25 07:15:09;;;;;;;47.05;31.50;;;0.30;96.40;;;;;;5118039;27;20122;-40
2021/01/25 07:17:35;;;;;;;53.75;35.67;;;0.20;96.40;;;;;;5114681;27;20716;-39
2021/01/25 07:20:01;;;;;;;46.58;32.05;;;0.20;96.40;;;;;;5122382;27;20050;-40
2021/01/25 07:22:28;;;;;;;47.67;30.83;;;0.20;96.50;;;;;;5112190;27;20077;-41
2021/01/25 07:24:54;;;;;;;49.38;32.80;;;0.10;96.50;;;;;;5111080;27;20071;-37
2021/01/25 07:27:20;;;;;;;52.20;32.25;;;0.10;96.60;;;;;;5114626;27;20039;-40
2021/01/25 07:29:53;;;;;;;58.28;34.67;;;0.00;96.60;;;;;;5123322;27;20027;-41
2021/01/25 07:32:24;;;;;;;50.78;33.05;;;0.00;96.70;;;;;;5117824;27;20685;-40
2021/01/25 07:34:50;;;;;;;49.10;32.75;;;0.00;96.70;;;;;;5126934;27;20027;-38
2021/01/25 07:37:15;;;;;;;47.65;32.47;;;0.00;96.80;;;;;;5115400;27;20038;-38
2021/01/25 07:39:43;;;;;;;54.70;34.90;;;0.00;96.80;;;;;;5125361;27;20095;-40
2021/01/25 07:42:09;;;;;;;49.20;31.42;;;0.00;96.90;;;;;;5116112;27;20169;-40
2021/01/25 07:44:35;;;;;;;47.20;31.80;;;0.00;96.90;;;;;;5127174;27;20117;-41
2021/01/25 07:47:04;;;;;;;46.92;31.85;;;0.00;96.90;;;;;;5113893;27;20034;-38
2021/01/25 07:49:33;;;;;;;49.35;32.88;;;0.00;96.90;;;;;;5127531;27;20038;-39
2021/01/25 07:51:58;;;;;;;50.90;32.40;;;0.00;96.90;;;;;;5112360;27;20011;-36
2021/01/25 07:54:29;;;;;;;38.80;27.67;;;0.00;96.90;;;;;;5126305;27;20505;-39
2021/01/25 07:56:59;;;;;;;44.58;29.75;;;0.00;96.90;;;;;;5118597;27;20020;-38
2021/01/25 07:59:33;;;;;;;46.78;30.88;;;0.00;97.00;;;;;;5127988;27;20080;-39
2021/01/25 08:02:12;;;;;;;41.45;29.00;;;0.00;97.00;;;;;;5113537;27;20476;-40
2021/01/25 08:04:41;;;;;;;46.05;28.95;;;0.10;97.00;;;;;;5105170;28;20062;-40
2021/01/25 08:07:08;;;;;;;43.53;29.38;;;0.00;96.90;;;;;;5110134;27;20042;-38
2021/01/25 08:09:38;;;;;;;47.92;30.48;;;0.00;96.90;;;;;;5125335;27;20800;-40
2021/01/25 08:12:04;;;;;;;41.47;28.50;;;0.10;97.00;;;;;;5121978;27;20036;-41
2021/01/25 08:14:49;;;;;;;49.88;31.23;;;0.10;97.00;;;;;;5108740;27;20224;-39
2021/01/25 08:17:29;;;;;;;42.75;28.10;;;0.10;97.00;;;;;;5115964;27;20080;-40
2021/01/25 08:20:04;;;;;;;47.53;31.65;;;0.10;97.00;;;;;;5106563;28;20134;-40
2021/01/25 08:22:32;;;;;;;49.67;31.98;;;0.10;97.10;;;;;;5116573;27;20027;-40
2021/01/25 08:25:01;;;;;;;52.53;34.08;;;0.10;97.10;;;;;;5107541;28;20149;-41
2021/01/25 08:27:29;;;;;;;50.08;32.65;;;0.10;97.10;;;;;;5121224;27;20142;-40
2021/01/25 08:30:18;;;;;;;44.20;29.42;;;0.10;97.10;;;;;;5108634;27;20279;-36
2021/01/25 08:32:47;;;;;;;54.08;32.67;;;0.10;97.10;;;;;;5110018;27;20103;-39
2021/01/25 08:35:14;;;;;;;44.20;29.50;;;0.20;97.10;;;;;;5123621;27;20354;-38
2021/01/25 08:37:39;;;;;;;52.25;30.88;;;0.20;97.10;;;;;;5117734;27;20020;-40
2021/01/25 08:40:20;;;;;;;44.17;31.52;;;0.20;97.10;;;;;;5120157;27;20134;-41
2021/01/25 08:42:46;;;;;;;51.17;32.38;;;0.20;97.10;;;;;;5125283;27;20031;-40
2021/01/25 08:45:22;;;;;;;48.28;31.30;;;0.20;97.10;;;;;;5129072;27;20015;-40
2021/01/25 08:47:47;;;;;;;52.13;32.78;;;0.20;97.10;;;;;;5106468;28;20039;-41
2021/01/25 08:50:31;;;;;;;50.53;33.20;;;0.30;97.20;;;;;;5125573;27;20353;-39
2021/01/25 08:53:16;;;;;;;47.33;30.75;;;0.40;97.10;;;;;;5121309;27;20526;-33
2021/01/25 08:55:44;;;;;;;53.00;33.53;;;0.40;97.10;;;;;;5109959;28;20343;-38
2021/01/25 08:58:27;;;;;;;47.38;30.80;;;0.40;97.00;;;;;;5111672;28;20019;-35
2021/01/25 09:00:53;;;;;;;;;;;0.50;97.00;;;;;;5110349;28;20169;-40
2021/01/25 09:03:19;;;;;;;41.95;27.10;;;0.50;97.00;;;;;;5111047;28;20002;-40
2021/01/25 09:05:45;;;;;;;44.78;30.17;;;0.50;97.00;;;;;;5111927;28;20077;-39
2021/01/25 09:08:11;;;;;;;46.97;32.58;;;0.50;97.00;;;;;;5109067;28;20020;-39
2021/01/25 09:10:37;;;;;;;46.28;29.70;;;0.60;97.00;;;;;;5114545;28;20032;-39
2021/01/25 09:13:03;;;;;;;43.55;28.55;;;0.60;97.00;;;;;;5106783;28;20114;-38
2021/01/25 09:15:29;;;;;;;38.17;25.55;;;0.70;97.00;;;;;;5117049;28;20114;-38
2021/01/25 09:17:56;;;;;;;39.40;26.02;;;0.70;97.00;;;;;;5106013;28;20114;-39
2021/01/25 09:20:21;;;;;;;34.65;24.05;;;0.70;97.00;;;;;;5113760;28;20609;-39
2021/01/25 09:22:47;;;;;;;39.88;25.60;;;0.70;97.00;;;;;;5104931;28;20035;-39
2021/01/25 09:25:15;;;;;;;35.60;24.33;;;0.80;97.00;;;;;;5117622;28;20502;-39
2021/01/25 09:27:41;;;;;;;37.15;24.70;;;0.80;97.00;;;;;;5105348;28;20498;-39
2021/01/25 09:30:16;;;;;;;39.28;26.00;;;0.80;97.00;;;;;;5118266;28;20095;-39
2021/01/25 09:32:42;;;;;;;40.30;28.52;;;0.90;97.00;;;;;;5104225;28;20047;-39
2021/01/25 09:35:09;;;;;;;36.45;24.67;;;1.00;96.90;;;;;;5117851;28;20461;-37
2021/01/25 09:37:38;;;;;;;47.75;31.05;;;1.00;96.90;;;;;;5105606;28;20023;-40
2021/01/25 09:40:06;;;;;;;44.97;28.52;;;1.00;96.80;;;;;;5115314;28;20031;-39
2021/01/25 09:42:31;;;;;;;43.47;28.10;;;1.10;96.80;;;;;;5107448;28;20035;-40
2021/01/25 09:44:57;;;;;;;36.70;24.45;;;1.10;96.80;;;;;;5113063;28;20062;-38
2021/01/25 09:47:23;;;;;;;36.08;22.70;;;1.10;96.80;;;;;;5109835;28;20581;-38
2021/01/25 09:49:51;;;;;;;35.58;23.60;;;1.10;96.80;;;;;;5110167;28;20747;-38
2021/01/25 09:52:17;;;;;;;36.92;24.27;;;1.10;96.80;;;;;;5119668;28;20083;-39
2021/01/25 09:54:46;;;;;;;38.60;24.00;;;1.20;96.80;;;;;;5120845;28;20470;-39
2021/01/25 09:57:14;;;;;;;41.80;26.40;;;1.20;96.80;;;;;;5126102;28;20023;-37
2021/01/25 09:59:40;;;;;;;36.13;24.80;;;1.30;96.70;;;;;;5124455;27;20363;-36
2021/01/25 10:02:06;;;;;;;35.95;24.60;;;1.30;96.60;;;;;;5123720;27;20022;-39
2021/01/25 10:04:31;;;;;;;35.28;24.42;;;1.40;96.60;;;;;;5128126;27;20079;-39
2021/01/25 10:06:57;;;;;;;36.65;23.45;;;1.40;96.60;;;;;;5128876;27;20081;-38
2021/01/25 10:09:22;;;;;;;33.75;23.45;;;1.50;96.60;;;;;;5129693;27;20421;-40
2021/01/25 10:11:48;;;;;;;35.05;23.60;;;1.50;96.60;;;;;;5116162;27;20403;-39
2021/01/25 10:14:14;;;;;;;32.47;22.63;;;1.50;96.60;;;;;;5128791;27;20035;-40
2021/01/25 10:16:39;;;;;;;32.10;22.15;;;1.60;96.60;;;;;;5130899;27;20033;-37
2021/01/25 10:19:05;;;;;;;32.60;21.73;;;1.60;96.60;;;;;;5129316;27;20023;-40
2021/01/25 10:21:30;;;;;;;31.58;21.00;;;1.60;96.60;;;;;;5125088;27;20440;-40
2021/01/25 10:23:56;;;;;;;30.38;21.02;;;1.60;96.60;;;;;;5129045;27;20119;-40
2021/01/25 10:26:31;;;;;;;32.17;20.48;;;1.70;96.60;;;;;;5124973;27;20023;-40
2021/01/25 10:28:56;;;;;;;24.38;17.80;;;1.70;96.60;;;;;;5111131;27;20453;-40
2021/01/25 10:31:22;;;;;;;22.20;16.15;;;1.70;96.60;;;;;;5115608;27;20027;-40
2021/01/25 10:33:48;;;;;;;26.00;17.48;;;1.80;96.60;;;;;;5114015;27;20040;-39
2021/01/25 10:36:13;;;;;;;25.95;17.55;;;1.80;96.60;;;;;;5111529;27;20019;-40
2021/01/25 10:38:40;;;;;;;26.20;17.65;;;1.90;96.60;;;;;;5116369;27;20028;-39
2021/01/25 10:41:05;;;;;;;24.17;15.75;;;1.90;96.50;;;;;;5112988;27;20015;-38
2021/01/25 10:43:33;;;;;;;26.05;17.85;;;2.00;96.40;;;;;;5128252;27;20020;-39
2021/01/25 10:45:59;;;;;;;23.42;16.25;;;2.00;96.30;;;;;;5125752;27;20123;-38
2021/01/25 10:48:24;;;;;;;24.98;15.75;;;2.10;96.40;;;;;;5119214;27;20018;-38
2021/01/25 10:50:50;;;;;;;23.50;14.70;;;2.10;96.30;;;;;;5107419;28;20020;-38
2021/01/25 10:53:18;;;;;;;24.67;15.70;;;2.20;96.30;;;;;;5119717;27;20035;-41
2021/01/25 10:55:43;;;;;;;21.13;15.52;;;2.20;96.30;;;;;;5106915;28;20094;-39
2021/01/25 10:58:09;;;;;;;25.95;17.77;;;2.30;96.20;;;;;;5120104;27;20164;-40
2021/01/25 11:00:34;;;;;;;23.85;16.17;;;2.30;96.20;;;;;;5107415;28;20016;-40
2021/01/25 11:03:00;;;;;;;23.70;16.55;;;2.40;96.20;;;;;;5119188;27;20736;-39
2021/01/25 11:05:26;;;;;;;20.48;15.40;;;2.50;96.00;;;;;;5107349;28;20044;-38
2021/01/25 11:07:53;;;;;;;21.63;14.85;;;2.60;95.90;;;;;;5116560;27;20018;-39
2021/01/25 11:10:23;;;;;;;18.02;13.65;;;2.60;95.90;;;;;;5109912;27;20035;-40
2021/01/25 11:12:49;;;;;;;19.38;14.48;;;2.70;95.80;;;;;;5114071;27;20032;-40
2021/01/25 11:15:16;;;;;;;21.30;14.68;;;2.70;95.70;;;;;;5112736;27;20058;-41
2021/01/25 11:17:44;;;;;;;18.73;13.13;;;2.70;95.70;;;;;;5111311;27;20450;-38
2021/01/25 11:20:10;;;;;;;23.02;14.85;;;2.80;95.70;;;;;;5114865;27;20027;-40
2021/01/25 11:22:35;;;;;;;19.02;13.02;;;2.90;95.30;;;;;;5109453;27;20110;-39
2021/01/25 11:25:01;;;;;;;20.85;14.88;;;2.90;95.30;;;;;;5116318;27;20136;-40
2021/01/25 11:27:27;;;;;;;19.42;13.50;;;3.00;94.90;;;;;;5108114;27;20027;-38
2021/01/25 11:29:52;;;;;;;21.25;13.77;;;3.10;95.00;;;;;;5118369;27;20023;-38
2021/01/25 11:32:18;;;;;;;22.63;14.52;;;3.10;94.90;;;;;;5123923;27;20031;-41
2021/01/25 11:34:44;;;;;;;22.42;14.98;;;3.20;94.90;;;;;;5114685;27;20458;-40
2021/01/25 11:37:09;;;;;;;18.92;13.75;;;3.20;94.50;;;;;;5127595;27;20034;-39
2021/01/25 11:39:35;;;;;;;23.40;13.60;;;3.30;94.80;;;;;;5113282;27;20079;-40
2021/01/25 11:42:01;;;;;;;16.20;12.00;;;3.30;94.80;;;;;;5127109;27;20099;-38
2021/01/25 11:44:27;;;;;;;19.00;13.18;;;3.30;94.80;;;;;;5114340;27;20156;-39
2021/01/25 11:46:54;;;;;;;16.17;12.15;;;3.30;94.80;;;;;;5126090;27;20113;-40
2021/01/25 11:49:20;;;;;;;16.85;12.82;;;3.40;94.90;;;;;;5116443;27;20024;-39
2021/01/25 11:51:46;;;;;;;17.33;12.50;;;3.40;94.90;;;;;;5123943;27;20038;-40
2021/01/25 11:54:12;;;;;;;19.40;12.82;;;3.40;94.90;;;;;;5118522;27;20159;-38
2021/01/25 11:56:38;;;;;;;17.75;11.57;;;3.50;94.90;;;;;;5121181;27;20066;-39
2021/01/25 11:59:04;;;;;;;16.45;12.07;;;3.50;94.90;;;;;;5121833;27;20743;-40
2021/01/25 12:01:30;;;;;;;17.23;11.07;;;3.50;94.90;;;;;;5118189;27;20031;-40
2021/01/25 12:03:56;;;;;;;14.80;9.98;;;3.50;95.00;;;;;;5124087;27;20118;-38
2021/01/25 12:06:21;;;;;;;13.52;9.75;;;3.50;95.00;;;;;;5115457;27;20122;-40
2021/01/25 12:08:47;;;;;;;15.00;9.63;;;3.50;95.00;;;;;;5123601;27;20066;-40
2021/01/25 12:11:12;;;;;;;11.88;9.45;;;3.50;95.00;;;;;;5117719;27;20072;-40
2021/01/25 12:13:38;;;;;;;13.23;9.27;;;3.50;95.00;;;;;;5112771;27;20035;-42
2021/01/25 12:16:05;;;;;;;15.85;9.85;;;3.50;94.90;;;;;;5125384;27;20031;-41
2021/01/25 12:18:30;;;;;;;13.18;9.10;;;3.60;94.40;;;;;;5125944;27;20019;-39
2021/01/25 12:20:56;;;;;;;15.10;9.23;;;3.70;94.30;;;;;;5124076;27;20019;-40
2021/01/25 12:23:22;;;;;;;13.82;9.68;;;3.70;93.90;;;;;;5126040;27;20596;-40
2021/01/25 12:25:48;;;;;;;12.20;8.55;;;3.80;94.20;;;;;;5121784;27;20027;-39
2021/01/25 12:28:14;;;;;;;12.57;8.45;;;3.80;94.20;;;;;;5126511;27;20097;-39
2021/01/25 12:30:39;;;;;;;11.52;8.07;;;3.80;94.20;;;;;;5116031;27;20028;-41
2021/01/25 12:33:05;;;;;;;11.52;8.57;;;3.80;94.20;;;;;;5122813;27;20035;-39
2021/01/25 12:35:31;;;;;;;10.70;7.97;;;3.90;94.00;;;;;;5118639;27;20084;-40
2021/01/25 12:37:57;;;;;;;13.18;8.88;;;3.90;94.00;;;;;;5120113;27;20031;-40
2021/01/25 12:40:23;;;;;;;11.13;7.78;;;3.90;93.80;;;;;;5125443;27;20146;-40